Time;durP1;ratioP1;P1;durP2;ratioP2;P2;SDS_P1;SDS_P2;PMS_P1;PMS_P2;Temp;Humidity;BMP_temperature;BMP_pressure;BME280_temperature;BME280_humidity;BME280_pressure;Samples;Min_cycle;Max_cycle;Signal;HPM_P1;HPM_P2
2023/07/20 00:00:05;;;;;;;2.60;0.85;;;;;;;;;;10102779;28;20226;-81
2023/07/20 00:05:14;;;;;;;0.50;0.50;;;;;;;;;;10108122;28;20298;-78
2023/07/20 00:10:15;;;;;;;0.70;0.45;;;;;;;;;;10110805;28;20433;-79
2023/07/20 00:15:16;;;;;;;0.40;0.40;;;;;;;;;;10122559;28;20221;-75
2023/07/20 00:20:17;;;;;;;0.60;0.60;;;;;;;;;;10103840;28;20747;-77
2023/07/20 00:25:19;;;;;;;0.52;0.40;;;;;;;;;;10129986;28;20649;-80
2023/07/20 00:30:20;;;;;;;0.40;0.40;;;;;;;;;;10120468;28;20215;-78
2023/07/20 00:35:21;;;;;;;0.50;0.50;;;;;;;;;;10122570;28;20228;-79
2023/07/20 00:40:22;;;;;;;2.40;0.50;;;;;;;;;;10120695;28;21313;-78
2023/07/20 00:45:25;;;;;;;2.85;0.80;;;;;;;;;;10115246;28;20246;-81
2023/07/20 00:50:27;;;;;;;2.28;0.45;;;;;;;;;;10123479;28;20819;-79
2023/07/20 00:55:28;;;;;;;7.95;1.08;;;;;;;;;;10131689;28;21270;-76
2023/07/20 01:00:30;;;;;;;3.80;0.70;;;;;;;;;;10131774;28;20219;-77
2023/07/20 01:05:47;;;;;;;3.30;0.60;;;;;;;;;;10127550;28;20320;-79
2023/07/20 01:10:58;;;;;;;0.60;0.60;;;;;;;;;;10110722;28;20514;-78
2023/07/20 01:16:02;;;;;;;1.50;0.50;;;;;;;;;;10119259;28;20959;-75
2023/07/20 01:21:10;;;;;;;0.77;0.57;;;;;;;;;;10120835;28;20216;-76
2023/07/20 01:26:24;;;;;;;0.73;0.57;;;;;;;;;;10124913;28;20323;-78
2023/07/20 01:31:25;;;;;;;0.90;0.90;;;;;;;;;;10130375;28;20347;-78
2023/07/20 01:36:28;;;;;;;0.98;0.98;;;;;;;;;;10118092;28;21677;-77
2023/07/20 01:41:29;;;;;;;0.60;0.60;;;;;;;;;;10147135;28;21051;-78
2023/07/20 01:46:30;;;;;;;0.95;0.75;;;;;;;;;;10141312;28;20231;-78
2023/07/20 01:51:31;;;;;;;0.82;0.82;;;;;;;;;;10140243;28;20318;-79
2023/07/20 01:56:33;;;;;;;0.80;0.80;;;;;;;;;;10123936;28;20224;-80
2023/07/20 02:01:34;;;;;;;1.85;0.98;;;;;;;;;;10121952;28;20250;-79
2023/07/20 02:06:35;;;;;;;0.93;0.93;;;;;;;;;;10117566;28;22901;-77
2023/07/20 02:11:36;;;;;;;1.10;1.00;;;;;;;;;;10131085;28;20239;-76
2023/07/20 02:16:37;;;;;;;1.85;1.10;;;;;;;;;;10125462;28;21084;-76
2023/07/20 02:21:38;;;;;;;1.38;0.90;;;;;;;;;;10127957;28;20248;-79
2023/07/20 02:26:39;;;;;;;9.30;1.58;;;;;;;;;;10129824;28;22467;-76
2023/07/20 02:31:42;;;;;;;2.50;0.85;;;;;;;;;;10125964;28;20287;-77
2023/07/20 02:36:43;;;;;;;0.80;0.80;;;;;;;;;;10127936;28;20231;-78
2023/07/20 02:41:45;;;;;;;2.72;0.95;;;;;;;;;;10129978;28;20229;-77
2023/07/20 02:46:46;;;;;;;2.25;0.63;;;;;;;;;;10126670;28;20231;-78
2023/07/20 02:51:47;;;;;;;1.10;1.10;;;;;;;;;;10126229;28;20219;-75
2023/07/20 02:56:48;;;;;;;0.88;0.80;;;;;;;;;;10134828;28;20224;-77
2023/07/20 03:01:49;;;;;;;0.80;0.80;;;;;;;;;;10102452;28;20330;-76
2023/07/20 03:06:50;;;;;;;3.13;1.10;;;;;;;;;;10125426;28;20220;-77
2023/07/20 03:11:51;;;;;;;1.73;1.13;;;;;;;;;;10113227;28;20493;-75
2023/07/20 03:16:52;;;;;;;6.75;1.13;;;;;;;;;;10116394;28;20236;-77
2023/07/20 03:21:53;;;;;;;1.40;0.88;;;;;;;;;;10137418;28;20254;-77
2023/07/20 03:26:54;;;;;;;0.50;0.50;;;;;;;;;;10105996;28;20906;-77
2023/07/20 03:31:55;;;;;;;3.60;0.93;;;;;;;;;;10132317;28;20339;-79
2023/07/20 03:36:56;;;;;;;4.43;0.98;;;;;;;;;;10110175;28;20224;-78
2023/07/20 03:41:59;;;;;;;2.85;0.75;;;;;;;;;;10103378;28;21680;-79
2023/07/20 03:47:00;;;;;;;1.75;1.20;;;;;;;;;;10105414;28;22442;-77
2023/07/20 03:52:05;;;;;;;1.45;0.60;;;;;;;;;;10130377;28;21245;-78
2023/07/20 03:57:06;;;;;;;7.40;0.82;;;;;;;;;;10120256;28;20224;-77
2023/07/20 04:02:07;;;;;;;2.50;1.20;;;;;;;;;;10101151;28;20216;-75
2023/07/20 04:07:08;;;;;;;1.75;0.80;;;;;;;;;;10124652;28;21157;-75
2023/07/20 04:12:10;;;;;;;7.18;1.00;;;;;;;;;;10119414;28;20252;-77
2023/07/20 04:17:13;;;;;;;1.95;0.80;;;;;;;;;;10114267;28;20227;-77
2023/07/20 04:22:17;;;;;;;2.40;0.90;;;;;;;;;;10109445;28;20215;-78
2023/07/20 04:27:18;;;;;;;1.25;0.93;;;;;;;;;;10114990;28;23204;-74
2023/07/20 04:32:19;;;;;;;2.90;0.90;;;;;;;;;;10115091;28;20241;-77
2023/07/20 04:37:20;;;;;;;2.58;1.02;;;;;;;;;;10124150;28;22293;-75
2023/07/20 04:42:23;;;;;;;0.98;0.82;;;;;;;;;;10128836;28;20273;-75
2023/07/20 04:47:24;;;;;;;0.70;0.70;;;;;;;;;;10121490;28;20217;-76
2023/07/20 04:52:27;;;;;;;1.35;0.80;;;;;;;;;;10123874;28;20255;-77
2023/07/20 04:57:28;;;;;;;2.55;0.52;;;;;;;;;;10099655;28;20227;-75
2023/07/20 05:02:29;;;;;;;0.40;0.40;;;;;;;;;;10108116;28;20654;-75
2023/07/20 05:07:30;;;;;;;1.00;0.70;;;;;;;;;;10119162;28;20217;-74
2023/07/20 05:12:31;;;;;;;0.50;0.50;;;;;;;;;;10128813;28;20236;-76
2023/07/20 05:17:33;;;;;;;1.05;0.43;;;;;;;;;;10138327;28;20233;-78
2023/07/20 05:22:34;;;;;;;0.25;0.25;;;;;;;;;;10132488;28;20262;-75
2023/07/20 05:27:36;;;;;;;0.30;0.30;;;;;;;;;;10132058;28;21828;-74
2023/07/20 05:32:37;;;;;;;1.13;0.38;;;;;;;;;;10102232;28;20238;-74
2023/07/20 05:37:38;;;;;;;0.20;0.20;;;;;;;;;;10108611;28;21040;-74
2023/07/20 05:42:39;;;;;;;0.20;0.20;;;;;;;;;;10117536;28;23050;-78
2023/07/20 05:47:42;;;;;;;0.30;0.30;;;;;;;;;;10075591;28;22050;-76
2023/07/20 05:52:43;;;;;;;0.85;0.50;;;;;;;;;;10091866;28;20243;-78
2023/07/20 05:57:44;;;;;;;0.65;0.25;;;;;;;;;;10099750;28;20221;-75
2023/07/20 06:02:46;;;;;;;0.10;0.10;;;;;;;;;;10093407;28;20227;-78
2023/07/20 06:07:47;;;;;;;0.30;0.30;;;;;;;;;;10091932;28;20343;-75
2023/07/20 06:12:48;;;;;;;2.17;0.25;;;;;;;;;;10081602;28;21540;-77
2023/07/20 06:17:49;;;;;;;0.40;0.40;;;;;;;;;;10112543;28;20227;-78
2023/07/20 06:22:50;;;;;;;0.93;0.40;;;;;;;;;;10102337;28;21534;-79
2023/07/20 06:27:51;;;;;;;0.30;0.30;;;;;;;;;;10102047;28;21699;-77
2023/07/20 06:32:52;;;;;;;0.30;0.30;;;;;;;;;;10094128;28;22617;-77
2023/07/20 06:37:53;;;;;;;0.25;0.25;;;;;;;;;;10093872;28;21106;-75
2023/07/20 06:42:55;;;;;;;0.30;0.30;;;;;;;;;;10107993;28;20357;-77
2023/07/20 06:47:57;;;;;;;1.17;0.30;;;;;;;;;;10102402;28;20729;-77
2023/07/20 06:52:59;;;;;;;0.40;0.40;;;;;;;;;;10117949;28;20352;-77
2023/07/20 06:58:00;;;;;;;1.65;0.38;;;;;;;;;;10101674;28;20250;-76
2023/07/20 07:03:02;;;;;;;0.20;0.20;;;;;;;;;;10090265;28;20216;-74
2023/07/20 07:08:06;;;;;;;0.20;0.20;;;;;;;;;;10135184;28;20224;-74
2023/07/20 07:13:07;;;;;;;2.45;0.25;;;;;;;;;;10107442;28;20344;-76
2023/07/20 07:18:08;;;;;;;0.20;0.20;;;;;;;;;;10123743;28;22102;-74
2023/07/20 07:23:10;;;;;;;0.30;0.30;;;;;;;;;;10109322;28;20821;-76
2023/07/20 07:28:11;;;;;;;0.55;0.55;;;;;;;;;;10120291;28;20220;-75
2023/07/20 07:33:12;;;;;;;0.10;0.10;;;;;;;;;;10138727;28;20232;-74
2023/07/20 07:38:13;;;;;;;0.20;0.20;;;;;;;;;;10114584;28;21613;-74
2023/07/20 07:43:14;;;;;;;0.20;0.20;;;;;;;;;;10125231;28;20227;-75
2023/07/20 07:48:15;;;;;;;0.20;0.20;;;;;;;;;;10136646;28;20243;-74
2023/07/20 07:53:16;;;;;;;2.00;0.10;;;;;;;;;;10132144;28;21526;-76
2023/07/20 07:58:17;;;;;;;0.13;0.13;;;;;;;;;;10119920;28;20220;-75
2023/07/20 08:03:19;;;;;;;0.40;0.20;;;;;;;;;;10115198;28;21461;-75
2023/07/20 08:08:20;;;;;;;0.10;0.10;;;;;;;;;;10127028;28;20686;-76
2023/07/20 08:13:21;;;;;;;0.10;0.10;;;;;;;;;;10136413;28;20905;-76
2023/07/20 08:18:22;;;;;;;0.10;0.10;;;;;;;;;;10135198;28;20236;-78
2023/07/20 08:23:23;;;;;;;0.10;0.10;;;;;;;;;;10114924;28;20220;-76
2023/07/20 08:28:26;;;;;;;0.10;0.10;;;;;;;;;;10113317;28;20387;-75
2023/07/20 08:33:29;;;;;;;0.20;0.20;;;;;;;;;;10100886;28;20225;-76
2023/07/20 08:38:30;;;;;;;0.30;0.30;;;;;;;;;;10104378;28;20410;-74
2023/07/20 08:43:31;;;;;;;1.48;0.20;;;;;;;;;;10105926;28;20225;-74
2023/07/20 08:48:33;;;;;;;0.20;0.20;;;;;;;;;;10119729;28;20216;-74
2023/07/20 08:53:34;;;;;;;0.30;0.30;;;;;;;;;;10135632;28;20232;-75
2023/07/20 08:58:36;;;;;;;0.30;0.30;;;;;;;;;;10110458;28;21227;-73
2023/07/20 09:03:39;;;;;;;0.50;0.50;;;;;;;;;;10119345;28;20235;-77
2023/07/20 09:08:43;;;;;;;0.70;0.70;;;;;;;;;;10104619;28;20247;-79
2023/07/20 09:13:44;;;;;;;0.60;0.60;;;;;;;;;;10093909;28;20807;-75
2023/07/20 09:18:45;;;;;;;1.40;0.73;;;;;;;;;;10103339;28;22114;-79
2023/07/20 09:23:48;;;;;;;0.77;0.77;;;;;;;;;;10101080;28;20739;-76
2023/07/20 09:28:50;;;;;;;0.93;0.93;;;;;;;;;;10111001;28;20316;-80
2023/07/20 09:33:53;;;;;;;0.35;0.32;;;;;;;;;;10125065;28;20259;-81
2023/07/20 09:38:54;;;;;;;1.05;0.30;;;;;;;;;;10105076;28;20221;-77
2023/07/20 09:43:55;;;;;;;0.30;0.30;;;;;;;;;;10128445;28;20228;-80
2023/07/20 09:48:57;;;;;;;0.10;0.10;;;;;;;;;;10096312;28;22598;-80
2023/07/20 09:53:58;;;;;;;0.10;0.10;;;;;;;;;;10118864;28;20255;-78
2023/07/20 09:58:59;;;;;;;1.23;0.10;;;;;;;;;;10109486;28;20315;-78
2023/07/20 10:04:04;;;;;;;0.17;0.17;;;;;;;;;;10110674;28;20350;-81
2023/07/20 10:09:07;;;;;;;0.10;0.10;;;;;;;;;;10124774;28;20251;-76
2023/07/20 10:14:11;;;;;;;0.00;0.00;;;;;;;;;;10101584;28;20224;-77
2023/07/20 10:19:14;;;;;;;0.68;0.10;;;;;;;;;;10099721;28;20414;-76
2023/07/20 10:24:15;;;;;;;0.10;0.10;;;;;;;;;;10105264;28;20752;-79
2023/07/20 10:29:17;;;;;;;8.68;0.10;;;;;;;;;;10096674;28;20347;-74
2023/07/20 10:34:18;;;;;;;0.00;0.00;;;;;;;;;;10106660;28;21009;-78
2023/07/20 10:39:24;;;;;;;0.00;0.00;;;;;;;;;;10102740;28;21761;-77
2023/07/20 10:44:25;;;;;;;0.00;0.00;;;;;;;;;;10151367;28;20424;-77
2023/07/20 10:49:27;;;;;;;0.10;0.10;;;;;;;;;;10136491;28;20264;-74
2023/07/20 10:54:28;;;;;;;1.95;0.10;;;;;;;;;;10150141;28;20830;-77
2023/07/20 10:59:32;;;;;;;0.30;0.00;;;;;;;;;;10135909;28;20219;-77
2023/07/20 11:04:40;;;;;;;0.00;0.00;;;;;;;;;;10142138;28;21239;-76
2023/07/20 11:09:42;;;;;;;0.00;0.00;;;;;;;;;;10141520;28;20379;-77
2023/07/20 11:14:56;;;;;;;0.17;0.00;;;;;;;;;;10158565;28;20267;-78
2023/07/20 11:19:58;;;;;;;0.10;0.10;;;;;;;;;;10143810;28;20226;-77
2023/07/20 11:24:59;;;;;;;0.10;0.10;;;;;;;;;;10137389;28;20254;-75
2023/07/20 11:30:00;;;;;;;0.10;0.10;;;;;;;;;;10151749;28;20811;-79
2023/07/20 11:35:01;;;;;;;0.35;0.10;;;;;;;;;;10135782;28;20342;-78
2023/07/20 11:40:02;;;;;;;0.00;0.00;;;;;;;;;;10115791;28;20569;-81
2023/07/20 11:45:04;;;;;;;0.00;0.00;;;;;;;;;;10143337;28;20213;-78
2023/07/20 11:50:06;;;;;;;0.28;0.10;;;;;;;;;;10107633;28;20622;-76
2023/07/20 11:55:08;;;;;;;0.00;0.00;;;;;;;;;;10098150;28;20381;-78
2023/07/20 12:00:11;;;;;;;0.08;0.08;;;;;;;;;;10109398;28;20193;-78
2023/07/20 12:05:12;;;;;;;0.10;0.10;;;;;;;;;;10124366;28;20215;-75
2023/07/20 12:10:13;;;;;;;0.10;0.10;;;;;;;;;;10118683;28;20255;-77
2023/07/20 12:15:15;;;;;;;0.00;0.00;;;;;;;;;;10121338;28;20212;-75
2023/07/20 12:20:33;;;;;;;0.20;0.20;;;;;;;;;;10171166;28;21293;-78
2023/07/20 12:25:34;;;;;;;0.35;0.10;;;;;;;;;;10134467;28;20980;-77
2023/07/20 12:30:36;;;;;;;0.10;0.10;;;;;;;;;;10143177;28;21320;-78
2023/07/20 12:35:37;;;;;;;0.08;0.08;;;;;;;;;;10142086;28;21728;-79
2023/07/20 12:40:38;;;;;;;0.93;0.10;;;;;;;;;;10118782;28;20240;-77
2023/07/20 12:45:40;;;;;;;0.10;0.10;;;;;;;;;;10093109;28;20562;-80
2023/07/20 12:50:42;;;;;;;0.10;0.10;;;;;;;;;;10128312;28;20971;-79
2023/07/20 12:55:42;;;;;;;0.10;0.10;;;;;;;;;;10117064;28;22846;-80
2023/07/20 13:00:44;;;;;;;0.20;0.20;;;;;;;;;;10144451;28;20301;-80
2023/07/20 13:05:45;;;;;;;0.10;0.10;;;;;;;;;;10111023;28;20223;-77
2023/07/20 13:10:46;;;;;;;0.10;0.10;;;;;;;;;;10127370;28;20542;-80
2023/07/20 13:15:47;;;;;;;0.20;0.20;;;;;;;;;;10125892;28;20364;-78
2023/07/20 13:20:49;;;;;;;0.15;0.15;;;;;;;;;;10127585;28;20215;-77
2023/07/20 13:25:50;;;;;;;0.20;0.20;;;;;;;;;;10100716;28;20363;-77
2023/07/20 13:30:51;;;;;;;2.35;0.20;;;;;;;;;;10122985;28;21271;-79
2023/07/20 13:35:52;;;;;;;0.15;0.10;;;;;;;;;;10105822;28;22679;-77
2023/07/20 13:40:53;;;;;;;0.10;0.10;;;;;;;;;;10125696;28;21226;-79
2023/07/20 13:45:54;;;;;;;0.45;0.20;;;;;;;;;;10131356;28;20223;-77
2023/07/20 13:50:55;;;;;;;0.10;0.10;;;;;;;;;;10096529;28;20239;-81
2023/07/20 13:55:56;;;;;;;0.10;0.10;;;;;;;;;;10107854;28;20256;-78
2023/07/20 14:00:58;;;;;;;0.20;0.20;;;;;;;;;;10115774;28;20247;-79
2023/07/20 14:05:59;;;;;;;0.20;0.20;;;;;;;;;;10109236;28;20282;-81
2023/07/20 14:11:00;;;;;;;0.10;0.10;;;;;;;;;;10113009;28;20955;-79
2023/07/20 14:16:01;;;;;;;0.10;0.10;;;;;;;;;;10117988;28;20267;-79
2023/07/20 14:21:06;;;;;;;0.20;0.20;;;;;;;;;;10111280;28;20368;-79
2023/07/20 14:26:08;;;;;;;0.17;0.17;;;;;;;;;;10123365;28;21441;-79
2023/07/20 14:31:09;;;;;;;1.55;0.10;;;;;;;;;;10112254;28;20239;-82
2023/07/20 14:36:10;;;;;;;0.10;0.10;;;;;;;;;;10101754;28;20675;-81
2023/07/20 14:41:12;;;;;;;2.35;0.20;;;;;;;;;;10125039;28;20583;-77
2023/07/20 14:46:13;;;;;;;0.20;0.20;;;;;;;;;;10119710;28;20238;-81
2023/07/20 14:51:14;;;;;;;0.10;0.10;;;;;;;;;;10106046;28;20235;-79
2023/07/20 14:56:15;;;;;;;0.20;0.13;;;;;;;;;;10112796;28;21720;-79
2023/07/20 15:01:16;;;;;;;1.50;0.30;;;;;;;;;;10102678;28;20215;-80
2023/07/20 15:06:17;;;;;;;1.05;0.20;;;;;;;;;;10102655;28;20710;-79
2023/07/20 15:11:18;;;;;;;0.10;0.10;;;;;;;;;;10108597;28;20287;-77
2023/07/20 15:16:19;;;;;;;0.10;0.10;;;;;;;;;;10096749;28;20358;-78
2023/07/20 15:21:20;;;;;;;0.93;0.30;;;;;;;;;;10079335;28;20216;-78
2023/07/20 15:26:22;;;;;;;0.22;0.22;;;;;;;;;;10099824;28;20264;-78
2023/07/20 15:31:23;;;;;;;0.20;0.20;;;;;;;;;;10096782;28;22211;-77
2023/07/20 15:36:24;;;;;;;0.10;0.10;;;;;;;;;;10109745;28;20223;-77
2023/07/20 15:41:25;;;;;;;0.10;0.10;;;;;;;;;;10106451;28;20888;-80
2023/07/20 15:46:41;;;;;;;0.20;0.20;;;;;;;;;;10115558;28;20221;-76
2023/07/20 15:51:43;;;;;;;0.20;0.20;;;;;;;;;;10114976;28;21807;-82
2023/07/20 15:56:44;;;;;;;0.20;0.20;;;;;;;;;;10121725;28;20351;-77
2023/07/20 16:01:46;;;;;;;26.08;0.60;;;;;;;;;;10122134;28;20925;-79
2023/07/20 16:06:47;;;;;;;0.20;0.20;;;;;;;;;;10120726;28;20317;-79
2023/07/20 16:11:48;;;;;;;0.10;0.10;;;;;;;;;;10116332;28;20228;-77
2023/07/20 16:16:50;;;;;;;0.10;0.10;;;;;;;;;;10129831;28;23906;-75
2023/07/20 16:21:51;;;;;;;0.20;0.20;;;;;;;;;;10120424;28;22980;-76
2023/07/20 16:26:52;;;;;;;1.38;0.20;;;;;;;;;;10119182;28;22665;-75
2023/07/20 16:31:53;;;;;;;0.10;0.10;;;;;;;;;;10128389;28;20236;-76
2023/07/20 16:36:56;;;;;;;0.10;0.10;;;;;;;;;;10117609;28;20803;-76
2023/07/20 16:41:57;;;;;;;0.20;0.20;;;;;;;;;;10108800;28;20216;-75
2023/07/20 16:46:58;;;;;;;0.20;0.20;;;;;;;;;;10108687;28;20911;-77
2023/07/20 16:51:59;;;;;;;12.48;0.60;;;;;;;;;;10134506;28;20978;-75
2023/07/20 16:57:00;;;;;;;0.20;0.20;;;;;;;;;;10124178;28;20306;-80
2023/07/20 17:02:01;;;;;;;0.20;0.20;;;;;;;;;;10141568;28;20223;-79
2023/07/20 17:07:02;;;;;;;0.90;0.22;;;;;;;;;;10109639;28;21473;-80
2023/07/20 17:12:04;;;;;;;0.20;0.20;;;;;;;;;;10137680;28;20242;-78
2023/07/20 17:17:05;;;;;;;1.13;0.30;;;;;;;;;;10113829;28;20224;-78
2023/07/20 17:22:06;;;;;;;1.73;0.20;;;;;;;;;;10126959;28;20232;-78
2023/07/20 17:27:07;;;;;;;0.20;0.20;;;;;;;;;;10123609;28;20231;-78
2023/07/20 17:32:09;;;;;;;1.33;0.30;;;;;;;;;;10131133;28;22055;-76
2023/07/20 17:37:10;;;;;;;0.30;0.30;;;;;;;;;;10116593;28;20231;-78
2023/07/20 17:42:11;;;;;;;2.90;0.40;;;;;;;;;;10106004;28;20231;-79
2023/07/20 17:47:12;;;;;;;0.20;0.20;;;;;;;;;;10110585;28;21278;-76
2023/07/20 17:52:13;;;;;;;0.25;0.25;;;;;;;;;;10124933;28;21820;-77
2023/07/20 17:57:14;;;;;;;0.22;0.22;;;;;;;;;;10134320;28;21622;-78
2023/07/20 18:02:15;;;;;;;0.20;0.20;;;;;;;;;;10107454;28;22247;-78
2023/07/20 18:07:17;;;;;;;0.30;0.28;;;;;;;;;;10139673;28;20228;-81
2023/07/20 18:12:18;;;;;;;9.85;0.98;;;;;;;;;;10122264;28;20282;-77
2023/07/20 18:17:19;;;;;;;3.05;0.43;;;;;;;;;;10132538;28;21539;-81
2023/07/20 18:22:20;;;;;;;7.68;0.45;;;;;;;;;;10123780;28;20231;-79
2023/07/20 18:27:21;;;;;;;4.75;0.90;;;;;;;;;;10149815;28;20230;-78
2023/07/20 18:32:22;;;;;;;0.20;0.20;;;;;;;;;;10123003;28;20238;-80
2023/07/20 18:37:24;;;;;;;0.85;0.30;;;;;;;;;;10114837;28;21493;-80
2023/07/20 18:42:25;;;;;;;1.55;0.30;;;;;;;;;;10126065;28;20310;-79
2023/07/20 18:47:27;;;;;;;8.15;0.70;;;;;;;;;;10155953;28;21203;-79
2023/07/20 18:52:28;;;;;;;5.45;0.57;;;;;;;;;;10121878;28;20968;-75
2023/07/20 18:57:31;;;;;;;0.35;0.35;;;;;;;;;;10121263;28;20271;-78
2023/07/20 19:02:32;;;;;;;0.22;0.22;;;;;;;;;;10146948;28;20227;-80
2023/07/20 19:07:33;;;;;;;2.17;0.35;;;;;;;;;;10151981;28;20883;-79
2023/07/20 19:12:34;;;;;;;0.50;0.35;;;;;;;;;;10137347;28;20777;-77
2023/07/20 19:17:35;;;;;;;0.57;0.22;;;;;;;;;;10114027;28;22057;-75
2023/07/20 19:22:36;;;;;;;0.60;0.30;;;;;;;;;;10121322;28;20317;-78
2023/07/20 19:27:41;;;;;;;0.30;0.30;;;;;;;;;;10138859;28;20226;-78
2023/07/20 19:32:42;;;;;;;0.75;0.30;;;;;;;;;;10122304;28;20240;-77
2023/07/20 19:37:44;;;;;;;0.20;0.20;;;;;;;;;;10125025;28;21329;-77
2023/07/20 19:42:49;;;;;;;1.33;0.32;;;;;;;;;;10122215;28;21286;-77
2023/07/20 19:47:50;;;;;;;0.30;0.30;;;;;;;;;;10129628;28;21422;-79
2023/07/20 19:52:51;;;;;;;0.20;0.20;;;;;;;;;;10152232;28;20412;-79
2023/07/20 19:57:52;;;;;;;0.30;0.30;;;;;;;;;;10120185;28;20322;-80
2023/07/20 20:02:54;;;;;;;0.50;0.38;;;;;;;;;;10115954;28;20418;-80
2023/07/20 20:07:55;;;;;;;0.40;0.25;;;;;;;;;;10116788;28;20213;-81
2023/07/20 20:12:56;;;;;;;0.30;0.30;;;;;;;;;;10130750;28;20235;-81
2023/07/20 20:17:59;;;;;;;0.20;0.20;;;;;;;;;;10113986;28;20780;-77
2023/07/20 20:23:01;;;;;;;0.43;0.30;;;;;;;;;;10120952;28;21412;-81
2023/07/20 20:28:02;;;;;;;1.95;0.35;;;;;;;;;;10116661;28;20327;-80
2023/07/20 20:33:03;;;;;;;0.30;0.30;;;;;;;;;;10118677;28;21266;-80
2023/07/20 20:38:04;;;;;;;2.03;0.40;;;;;;;;;;10106299;28;20747;-80
2023/07/20 20:43:05;;;;;;;11.82;1.25;;;;;;;;;;10109669;28;20919;-81
2023/07/20 20:48:07;;;;;;;15.60;1.17;;;;;;;;;;10143790;28;20227;-80
2023/07/20 20:53:09;;;;;;;4.10;0.95;;;;;;;;;;10140799;28;21230;-78
2023/07/20 20:58:10;;;;;;;0.40;0.40;;;;;;;;;;10116177;28;20794;-79
2023/07/20 21:03:11;;;;;;;0.40;0.40;;;;;;;;;;10110439;28;20217;-81
2023/07/20 21:08:13;;;;;;;0.70;0.40;;;;;;;;;;10123936;28;20897;-80
2023/07/20 21:13:14;;;;;;;0.43;0.30;;;;;;;;;;10128091;28;20539;-79
2023/07/20 21:18:15;;;;;;;2.80;0.50;;;;;;;;;;10114804;28;20485;-82
2023/07/20 21:23:19;;;;;;;0.40;0.40;;;;;;;;;;10127747;28;20706;-78
2023/07/20 21:28:20;;;;;;;0.57;0.40;;;;;;;;;;10124846;28;20228;-79
2023/07/20 21:33:21;;;;;;;0.40;0.30;;;;;;;;;;10136110;28;20575;-79
2023/07/20 21:38:22;;;;;;;0.30;0.30;;;;;;;;;;10109646;28;20419;-80
2023/07/20 21:43:23;;;;;;;0.40;0.40;;;;;;;;;;10116410;28;21036;-80
2023/07/20 21:48:24;;;;;;;1.40;0.32;;;;;;;;;;10120340;28;20631;-78
2023/07/20 21:53:25;;;;;;;2.00;0.30;;;;;;;;;;10124440;28;20232;-78
2023/07/20 21:58:26;;;;;;;0.40;0.40;;;;;;;;;;10109424;28;20242;-79
2023/07/20 22:03:27;;;;;;;0.30;0.30;;;;;;;;;;10090138;28;20728;-77
2023/07/20 22:08:28;;;;;;;0.40;0.40;;;;;;;;;;10126210;28;21372;-79
2023/07/20 22:13:29;;;;;;;0.32;0.32;;;;;;;;;;10111622;28;20228;-80
2023/07/20 22:18:31;;;;;;;0.45;0.40;;;;;;;;;;10115847;28;20891;-79
2023/07/20 22:23:32;;;;;;;0.68;0.30;;;;;;;;;;10112358;28;20220;-78
2023/07/20 22:28:33;;;;;;;0.57;0.38;;;;;;;;;;10127974;28;21781;-79
2023/07/20 22:33:34;;;;;;;0.40;0.40;;;;;;;;;;10118605;28;20232;-78
2023/07/20 22:38:36;;;;;;;0.30;0.30;;;;;;;;;;10119383;28;20278;-76
2023/07/20 22:43:37;;;;;;;1.05;0.50;;;;;;;;;;10128654;28;20318;-79
2023/07/20 22:48:38;;;;;;;0.30;0.30;;;;;;;;;;10120393;28;20227;-80
2023/07/20 22:53:39;;;;;;;0.30;0.30;;;;;;;;;;10116197;28;20350;-80
2023/07/20 22:58:40;;;;;;;0.20;0.20;;;;;;;;;;10117025;28;21086;-80
2023/07/20 23:03:41;;;;;;;0.50;0.50;;;;;;;;;;10112914;28;20452;-79
2023/07/20 23:08:43;;;;;;;0.40;0.40;;;;;;;;;;10116019;28;20227;-79
2023/07/20 23:13:44;;;;;;;0.60;0.60;;;;;;;;;;10113724;28;21260;-80
2023/07/20 23:18:46;;;;;;;0.47;0.40;;;;;;;;;;10119368;28;21004;-80
2023/07/20 23:23:49;;;;;;;2.72;0.73;;;;;;;;;;10108326;28;20258;-78
2023/07/20 23:28:50;;;;;;;0.40;0.40;;;;;;;;;;10124570;28;21273;-78
2023/07/20 23:33:51;;;;;;;2.17;0.70;;;;;;;;;;10116843;28;20325;-80
2023/07/20 23:38:52;;;;;;;1.00;0.60;;;;;;;;;;10103484;28;20410;-79
2023/07/20 23:43:56;;;;;;;0.60;0.60;;;;;;;;;;10123557;28;20220;-79
2023/07/20 23:48:57;;;;;;;0.55;0.40;;;;;;;;;;10111198;28;20701;-79
2023/07/20 23:53:58;;;;;;;0.40;0.40;;;;;;;;;;10117562;28;21101;-80
2023/07/20 23:58:59;;;;;;;2.03;0.60;;;;;;;;;;10121567;28;20254;-78
